Forside
METAR-TAF:

METAR-TAF

Lufthavne :

Asahikawa, Japan

Breddekreds: 43-40N, længdekreds: 142-27E, højde: 208 m

Aktuelle vejr

Denne rapport blev lavet for 29 minutter siden, kl. 00:00 UTC
Vind 8 kt fra syd
Temperatur 15°C
Fugtighed 94%
Tryk 1002 hPa
Sigt 10 km eller mere
Nogle få skyer i en højde af 800 ft
Spredte skyer i en højde af 3000 ft
Nogle få skyer i en højde af 3000 ft, Cumulonimbus.
Brudte skyer i en højde af 5000 ft
let regnbyger

METAR: RJEC 250000Z 18008KT 9999 -SHRA FEW008 SCT030 FEW030CB BKN050 15/14 Q1002

Tid: 09:29 (00:29 UTC)

Vejrudsigter

Denne rapport blev lavet for 1 time og 20 minutter siden, kl. 23:09 UTC
Foreløbig gælder fra 25 på 00 UTC til 26 på 06 UTC
Vind 12 kt fra sydsydvest
Sigt 10 km eller mere
Nogle få skyer i en højde af 1000 ft
Brudte skyer i en højde af 2500 ft
ændring
fra 25 på 04 UTC til 25 på 06 UTC
Vind 8 kt fra vestsydvest
Midlertidig
fra 25 på 12 UTC til 25 på 21 UTC
Sigt: 2000 m
dis

TAF: RJEC 242309Z 2500/2606 21012KT 9999 FEW010 BKN025 BECMG 2504/2506 25008KT TEMPO 2512/2521 2000 BR

Vejrobservationer og prognoser fra mere end 4000 lufthavne (METAR og TAF).

De gule og røde prikker repræsenterer de meteorologiske stationer.

Flyt musen over at se navnet på stationen.

Så klik over at se vejr observationer og prognoser.

At skifte det kort: Klik på de grønne knapper med et sort kors for at zoome ind; på den grønne knap med en bindestreg for at zoome ud; eller på de grønne pile for tilstødende kort.


METAR-TAF: